createdAt,value
2023-03-29T00:02:39.161Z,38.56
2023-03-29T00:05:15.361Z,38.69
2023-03-29T00:07:48.749Z,38.55
2023-03-29T00:10:19.115Z,38.29
2023-03-29T00:12:54.666Z,38.15
2023-03-29T00:15:26.362Z,38.04
2023-03-29T00:17:55.087Z,37.71
2023-03-29T00:20:33.480Z,37.75
2023-03-29T00:23:44.912Z,38.27
2023-03-29T00:26:15.841Z,38.17
2023-03-29T00:28:47.354Z,37.70
2023-03-29T00:31:19.507Z,37.65
2023-03-29T00:33:51.428Z,37.48
2023-03-29T00:36:25.315Z,37.29
2023-03-29T00:38:59.294Z,37.23
2023-03-29T00:41:33.494Z,37.24
2023-03-29T00:44:07.134Z,37.29
2023-03-29T00:46:37.416Z,37.34
2023-03-29T00:49:15.000Z,37.29
2023-03-29T00:51:47.064Z,37.26
2023-03-29T00:54:21.928Z,37.41
2023-03-29T00:56:54.399Z,37.28
2023-03-29T00:59:33.427Z,37.36
2023-03-29T01:02:10.954Z,37.18
2023-03-29T01:04:52.915Z,37.18
2023-03-29T01:07:36.757Z,37.03
2023-03-29T01:10:25.134Z,37.10
2023-03-29T01:13:08.660Z,37.07
2023-03-29T01:15:45.080Z,37.00
2023-03-29T01:18:15.647Z,36.99
2023-03-29T01:21:04.024Z,36.97
2023-03-29T01:23:54.841Z,37.08
2023-03-29T01:26:41.370Z,36.99
2023-03-29T01:29:19.509Z,36.89
2023-03-29T01:32:00.721Z,36.59
2023-03-29T01:34:39.327Z,36.65
2023-03-29T01:37:27.523Z,36.55
2023-03-29T01:40:06.568Z,36.44
2023-03-29T01:43:05.290Z,36.50
2023-03-29T01:45:43.377Z,36.23
2023-03-29T01:48:35.004Z,36.23
2023-03-29T01:51:17.363Z,36.11
2023-03-29T01:54:13.015Z,36.08
2023-03-29T01:56:50.662Z,35.79
2023-03-29T02:00:27.217Z,35.96
2023-03-29T02:03:31.318Z,35.86
2023-03-29T02:06:37.973Z,35.91
2023-03-29T02:09:19.731Z,35.68
2023-03-29T02:11:53.592Z,36.07
2023-03-29T02:14:25.845Z,35.60
2023-03-29T02:16:55.943Z,35.94
2023-03-29T02:19:34.314Z,35.65
2023-03-29T02:22:10.978Z,35.65
2023-03-29T02:24:49.374Z,35.61
2023-03-29T02:27:18.999Z,35.61
2023-03-29T02:29:50.301Z,35.42
2023-03-29T02:32:31.006Z,35.37
2023-03-29T02:35:22.737Z,35.51
2023-03-29T02:38:00.750Z,35.37
2023-03-29T02:40:35.400Z,35.22
2023-03-29T02:43:10.808Z,35.16
2023-03-29T02:45:42.557Z,36.45
2023-03-29T02:48:16.795Z,35.58
2023-03-29T02:50:50.552Z,35.24
2023-03-29T02:53:29.787Z,35.06
2023-03-29T02:56:05.617Z,34.90
2023-03-29T02:58:38.653Z,34.73
2023-03-29T03:01:11.273Z,34.68
2023-03-29T03:03:42.398Z,34.58
2023-03-29T03:06:11.234Z,34.47
2023-03-29T03:08:41.757Z,34.43
2023-03-29T03:11:11.582Z,34.27
2023-03-29T03:13:47.112Z,34.38
2023-03-29T03:16:21.013Z,34.37
2023-03-29T03:18:52.156Z,34.16
2023-03-29T03:21:25.127Z,34.17
2023-03-29T03:23:56.790Z,34.21
2023-03-29T03:26:33.062Z,34.40
2023-03-29T03:29:03.773Z,34.60
2023-03-29T03:32:01.487Z,34.66
2023-03-29T03:34:54.624Z,36.00
2023-03-29T03:37:33.316Z,35.36
2023-03-29T03:40:05.050Z,34.66
2023-03-29T03:42:34.956Z,34.47
2023-03-29T03:45:06.302Z,34.39
2023-03-29T03:47:52.932Z,34.38
2023-03-29T03:50:34.832Z,34.44
2023-03-29T03:53:07.737Z,34.51
2023-03-29T03:56:10.339Z,34.58
2023-03-29T03:59:01.452Z,34.63
2023-03-29T04:01:44.035Z,34.67
2023-03-29T04:04:22.623Z,34.67
2023-03-29T04:07:18.112Z,34.67
2023-03-29T04:10:34.547Z,34.72
2023-03-29T04:13:18.806Z,34.65
2023-03-29T04:16:29.556Z,34.67
2023-03-29T04:19:08.784Z,34.61
2023-03-29T04:21:39.486Z,34.51
2023-03-29T04:24:10.551Z,34.49
2023-03-29T04:26:43.172Z,34.57
2023-03-29T04:29:32.686Z,34.65
2023-03-29T04:32:15.154Z,34.65
2023-03-29T04:34:51.391Z,34.56
2023-03-29T04:37:25.175Z,34.51
2023-03-29T04:40:02.065Z,34.57
2023-03-29T04:42:39.200Z,34.55
2023-03-29T04:45:10.468Z,34.51
2023-03-29T04:48:03.315Z,34.60
2023-03-29T04:50:37.480Z,34.55
2023-03-29T04:53:10.419Z,34.56
2023-03-29T04:55:40.965Z,34.49
2023-03-29T04:58:14.897Z,34.62
2023-03-29T05:00:45.196Z,34.55
2023-03-29T05:03:26.623Z,34.58
2023-03-29T05:06:08.859Z,34.60
2023-03-29T05:08:42.106Z,34.56
2023-03-29T05:11:37.314Z,34.71
2023-03-29T05:14:10.157Z,34.64
2023-03-29T05:16:43.030Z,34.54
2023-03-29T05:19:14.266Z,34.49
2023-03-29T05:21:51.503Z,34.56
2023-03-29T05:24:27.006Z,34.57
2023-03-29T05:27:10.693Z,34.65
2023-03-29T05:29:41.327Z,35.12
2023-03-29T05:32:41.512Z,34.81
2023-03-29T05:35:13.381Z,34.72
2023-03-29T05:37:43.408Z,34.64
2023-03-29T05:40:14.100Z,34.61
2023-03-29T05:43:03.524Z,34.65
2023-03-29T05:45:34.605Z,34.49
2023-03-29T05:48:10.555Z,34.50
2023-03-29T05:50:47.407Z,34.63
2023-03-29T05:53:19.457Z,34.66
2023-03-29T05:55:50.925Z,34.61
2023-03-29T05:58:22.223Z,34.54
2023-03-29T06:00:53.142Z,34.69
2023-03-29T06:03:43.104Z,34.76
2023-03-29T06:06:17.926Z,34.70
2023-03-29T06:08:49.909Z,34.75
2023-03-29T06:11:41.420Z,34.74
2023-03-29T06:14:41.737Z,34.72
2023-03-29T06:17:35.282Z,34.82
2023-03-29T06:20:11.441Z,34.68
2023-03-29T06:22:48.825Z,34.68
2023-03-29T06:25:21.295Z,34.70
2023-03-29T06:27:54.525Z,34.74
2023-03-29T06:30:23.690Z,34.65
2023-03-29T06:33:03.378Z,34.87
2023-03-29T06:35:57.698Z,36.09
2023-03-29T06:38:33.201Z,34.95
2023-03-29T06:41:20.708Z,34.91
2023-03-29T06:44:13.533Z,35.00
2023-03-29T06:47:05.847Z,35.95
2023-03-29T06:49:35.582Z,35.11
2023-03-29T06:52:41.626Z,35.17
2023-03-29T06:55:13.814Z,35.01
2023-03-29T06:57:43.645Z,34.90
2023-03-29T07:00:30.459Z,34.77
2023-03-29T07:03:33.985Z,35.04
2023-03-29T07:06:13.550Z,34.95
2023-03-29T07:08:50.158Z,34.92
2023-03-29T07:11:34.639Z,34.94
2023-03-29T07:14:16.990Z,34.96
2023-03-29T07:16:47.839Z,34.89
2023-03-29T07:19:23.277Z,34.93
2023-03-29T07:22:01.719Z,34.93
2023-03-29T07:24:51.563Z,34.97
2023-03-29T07:27:24.819Z,34.98
2023-03-29T07:29:55.205Z,35.05
2023-03-29T07:32:37.448Z,35.15
2023-03-29T07:35:27.356Z,35.20
2023-03-29T07:38:07.551Z,35.11
2023-03-29T07:40:41.996Z,35.05
2023-03-29T07:43:33.024Z,36.34
2023-03-29T07:46:06.868Z,35.09
2023-03-29T07:48:41.549Z,34.95
2023-03-29T07:51:13.677Z,34.87
2023-03-29T07:53:46.594Z,34.78
2023-03-29T07:56:35.272Z,34.98
2023-03-29T07:59:26.335Z,34.92
2023-03-29T08:02:11.308Z,34.91
2023-03-29T08:04:49.045Z,34.87
2023-03-29T08:07:26.486Z,34.93
2023-03-29T08:10:14.687Z,36.17
2023-03-29T08:13:10.897Z,35.33
2023-03-29T08:16:10.200Z,34.92
2023-03-29T08:18:49.212Z,34.72
2023-03-29T08:21:21.577Z,34.63
2023-03-29T08:23:53.334Z,34.44
2023-03-29T08:26:42.643Z,34.25
2023-03-29T08:29:13.708Z,34.15
2023-03-29T08:31:45.458Z,34.04
2023-03-29T08:34:15.049Z,34.54
2023-03-29T08:36:49.254Z,34.86
2023-03-29T08:39:42.776Z,34.85
2023-03-29T08:42:51.498Z,34.85
2023-03-29T08:45:50.806Z,34.78
2023-03-29T08:48:31.270Z,34.60
2023-03-29T08:51:14.049Z,34.63
2023-03-29T08:53:53.664Z,34.57
2023-03-29T08:56:46.890Z,34.58
2023-03-29T08:59:41.238Z,34.68
2023-03-29T09:02:23.506Z,34.61
2023-03-29T09:05:19.196Z,34.33
2023-03-29T09:08:18.697Z,34.56
2023-03-29T09:11:01.452Z,34.48
2023-03-29T09:13:41.032Z,34.43
2023-03-29T09:16:39.633Z,34.64
2023-03-29T09:19:42.225Z,35.76
2023-03-29T09:22:21.416Z,36.04
2023-03-29T09:25:27.830Z,36.28
2023-03-29T09:28:05.594Z,35.92
2023-03-29T09:30:55.115Z,35.91
2023-03-29T09:33:38.451Z,35.85
2023-03-29T09:36:26.717Z,35.90
2023-03-29T09:39:01.489Z,35.67
2023-03-29T09:41:54.396Z,35.74
2023-03-29T09:44:31.134Z,35.58
2023-03-29T09:47:24.993Z,35.50
2023-03-29T09:50:01.738Z,35.16
2023-03-29T09:52:33.077Z,35.01
2023-03-29T09:55:19.126Z,34.94
2023-03-29T09:58:03.617Z,34.78
2023-03-29T10:00:42.914Z,34.79
2023-03-29T10:03:25.053Z,34.13
2023-03-29T10:06:06.570Z,33.81
2023-03-29T10:08:57.893Z,33.75
2023-03-29T10:11:59.244Z,33.60
2023-03-29T10:14:36.095Z,33.58
2023-03-29T10:17:17.316Z,33.42
2023-03-29T10:19:57.377Z,33.36
2023-03-29T10:22:38.726Z,33.26
2023-03-29T10:25:19.024Z,33.36
2023-03-29T10:27:49.590Z,33.02
2023-03-29T10:30:26.839Z,32.97
2023-03-29T10:33:01.412Z,33.07
2023-03-29T10:35:43.295Z,33.18
2023-03-29T10:38:17.678Z,33.01
2023-03-29T10:40:55.385Z,33.01
2023-03-29T10:43:44.047Z,33.01
2023-03-29T10:46:28.057Z,33.11
2023-03-29T10:49:10.837Z,33.07
2023-03-29T10:55:07.137Z,33.23
2023-03-29T10:57:43.392Z,33.04
2023-03-29T11:00:22.907Z,32.91
2023-03-29T11:03:26.816Z,33.01
2023-03-29T11:06:09.209Z,33.03
2023-03-29T11:08:54.947Z,32.86
2023-03-29T11:11:45.387Z,33.02
2023-03-29T11:14:43.374Z,32.99
2023-03-29T11:17:35.804Z,32.97
2023-03-29T11:20:25.329Z,32.92
2023-03-29T11:23:01.603Z,32.76
2023-03-29T11:25:55.242Z,32.80
2023-03-29T11:28:39.471Z,32.66
2023-03-29T11:31:30.021Z,32.65
2023-03-29T11:34:27.558Z,32.69
2023-03-29T11:37:25.271Z,32.60
2023-03-29T11:40:23.593Z,32.92
2023-03-29T11:42:57.776Z,32.73
2023-03-29T11:45:43.170Z,32.76
2023-03-29T11:48:23.061Z,32.73
2023-03-29T11:51:51.336Z,32.88
2023-03-29T11:54:34.243Z,32.81
2023-03-29T11:57:43.182Z,33.17
2023-03-29T12:00:22.293Z,33.08
2023-03-29T12:02:54.620Z,32.96
2023-03-29T12:05:34.254Z,33.02
2023-03-29T12:08:27.138Z,33.45
2023-03-29T12:11:31.798Z,33.74
2023-03-29T12:14:41.203Z,33.92
2023-03-29T12:17:20.787Z,33.88
2023-03-29T12:20:14.500Z,34.15
2023-03-29T12:22:49.973Z,34.24
2023-03-29T12:29:38.351Z,35.16
2023-03-29T12:32:27.407Z,35.34
2023-03-29T12:35:26.406Z,35.54
2023-03-29T12:38:16.856Z,35.69
2023-03-29T12:41:19.569Z,35.94
2023-03-29T12:44:43.072Z,36.34
2023-03-29T12:47:27.125Z,36.37
2023-03-29T12:50:01.397Z,36.47
2023-03-29T12:52:38.041Z,36.66
2023-03-29T12:55:30.023Z,36.92
2023-03-29T12:58:12.996Z,37.01
2023-03-29T13:00:42.881Z,37.11
2023-03-29T13:03:46.956Z,37.58
2023-03-29T13:06:47.288Z,37.64
2023-03-29T13:09:31.584Z,38.46
2023-03-29T13:12:12.042Z,37.92
2023-03-29T13:14:45.977Z,37.91
2023-03-29T13:17:33.117Z,38.33
2023-03-29T13:20:05.018Z,38.25
2023-03-29T13:23:07.757Z,38.37
2023-03-29T13:25:51.954Z,38.55
2023-03-29T13:28:30.222Z,38.55
2023-03-29T13:31:09.085Z,38.67
2023-03-29T13:33:43.651Z,38.52
2023-03-29T13:36:37.374Z,38.70
2023-03-29T13:39:30.632Z,38.86
2023-03-29T13:42:21.004Z,39.03
2023-03-29T13:44:51.090Z,38.83
2023-03-29T13:47:20.907Z,38.65
2023-03-29T13:50:02.676Z,38.73
2023-03-29T13:52:53.905Z,39.26
2023-03-29T13:55:38.790Z,38.67
2023-03-29T13:58:34.956Z,38.67
2023-03-29T14:02:13.859Z,38.89
2023-03-29T14:04:50.184Z,38.89
2023-03-29T14:07:33.917Z,38.75
2023-03-29T14:10:05.002Z,38.70
2023-03-29T14:12:43.134Z,38.62
2023-03-29T14:15:28.031Z,38.71
2023-03-29T14:18:03.618Z,38.76
2023-03-29T14:20:35.666Z,38.63
2023-03-29T14:23:16.129Z,38.67
2023-03-29T14:25:50.845Z,38.69
2023-03-29T14:28:45.873Z,38.82
2023-03-29T14:31:23.114Z,38.98
2023-03-29T14:33:57.049Z,39.01
2023-03-29T14:36:35.630Z,39.06
2023-03-29T14:39:24.063Z,39.12
2023-03-29T14:42:17.612Z,39.01
2023-03-29T14:44:50.511Z,39.21
2023-03-29T14:47:31.464Z,39.44
2023-03-29T14:50:05.913Z,39.42
2023-03-29T14:52:38.293Z,39.43
2023-03-29T14:55:10.700Z,39.43
2023-03-29T14:58:03.270Z,39.63
2023-03-29T15:00:50.913Z,39.88
2023-03-29T15:03:23.232Z,39.69
2023-03-29T15:05:59.276Z,39.58
2023-03-29T15:08:38.564Z,40.18
2023-03-29T15:11:33.473Z,40.26
2023-03-29T15:14:21.217Z,40.11
2023-03-29T15:16:50.872Z,40.88
2023-03-29T15:20:08.541Z,39.84
2023-03-29T15:22:23.609Z,39.91
2023-03-29T15:24:54.840Z,39.88
2023-03-29T15:27:23.946Z,39.41
2023-03-29T15:30:03.329Z,39.47
2023-03-29T15:32:48.123Z,39.74
2023-03-29T15:41:49.936Z,40.57
2023-03-29T15:44:27.171Z,40.24
2023-03-29T15:47:31.926Z,40.04
2023-03-29T15:50:07.996Z,40.00
2023-03-29T15:53:34.686Z,40.72
2023-03-29T15:57:07.564Z,40.57
2023-03-29T16:00:02.132Z,40.45
2023-03-29T16:04:46.009Z,40.90
2023-03-29T16:13:41.266Z,41.05
2023-03-29T16:17:16.835Z,40.93
2023-03-29T16:20:06.376Z,40.48
2023-03-29T16:22:35.274Z,40.22
2023-03-29T16:25:19.400Z,40.06
2023-03-29T16:28:22.097Z,40.35
2023-03-29T16:30:52.117Z,40.13
2023-03-29T16:34:43.157Z,40.60
2023-03-29T16:41:55.784Z,40.74
2023-03-29T16:50:04.303Z,40.75
2023-03-29T16:54:18.466Z,41.42
2023-03-29T17:01:41.940Z,40.83
2023-03-29T17:04:22.804Z,40.79
2023-03-29T17:06:54.275Z,40.70
2023-03-29T17:09:31.354Z,40.75
2023-03-29T17:12:38.747Z,41.00
2023-03-29T17:16:25.884Z,40.87
2023-03-29T17:22:13.668Z,40.54
2023-03-29T17:24:53.268Z,40.34
2023-03-29T17:27:25.446Z,40.36
2023-03-29T17:29:57.736Z,40.32
2023-03-29T17:32:37.115Z,40.52
2023-03-29T17:35:20.741Z,40.70
2023-03-29T17:37:57.006Z,40.79
2023-03-29T17:40:35.354Z,40.95
2023-03-29T17:43:06.191Z,40.99
2023-03-29T17:45:40.281Z,41.51
2023-03-29T17:48:10.213Z,41.80
2023-03-29T17:50:43.415Z,41.56
2023-03-29T17:53:15.507Z,41.61
2023-03-29T17:55:46.448Z,41.41
2023-03-29T17:58:19.373Z,42.02
2023-03-29T18:00:54.241Z,41.53
2023-03-29T18:03:31.392Z,41.37
2023-03-29T18:06:08.992Z,41.39
2023-03-29T18:08:43.527Z,41.48
2023-03-29T18:11:46.520Z,41.58
2023-03-29T18:14:15.431Z,42.01
2023-03-29T18:16:48.643Z,41.62
2023-03-29T18:19:21.587Z,41.54
2023-03-29T18:21:52.385Z,41.51
2023-03-29T18:24:23.876Z,41.55
2023-03-29T18:26:56.914Z,41.50
2023-03-29T18:29:33.037Z,41.42
2023-03-29T18:32:06.922Z,41.42
2023-03-29T18:34:36.354Z,41.45
2023-03-29T18:38:12.447Z,41.97
2023-03-29T18:41:19.425Z,42.29
2023-03-29T18:43:51.409Z,41.74
2023-03-29T18:49:34.347Z,41.96
2023-03-29T18:52:54.666Z,42.07
2023-03-29T18:55:33.891Z,41.77
2023-03-29T19:08:47.893Z,42.85
2023-03-29T19:16:46.458Z,43.40
2023-03-29T19:26:19.311Z,43.02
2023-03-29T19:28:49.081Z,42.64
2023-03-29T19:31:22.288Z,42.44
2023-03-29T19:33:51.515Z,41.68
2023-03-29T19:36:22.854Z,41.46
2023-03-29T19:38:57.253Z,41.28
2023-03-29T19:41:35.743Z,41.29
2023-03-29T19:44:11.277Z,41.98
2023-03-29T19:47:54.314Z,42.67
2023-03-29T19:50:25.627Z,42.20
2023-03-29T19:52:59.135Z,42.17
2023-03-29T19:55:27.831Z,42.05
2023-03-29T19:57:57.712Z,42.00
2023-03-29T20:00:27.938Z,42.01
2023-03-29T20:02:57.939Z,41.82
2023-03-29T20:05:27.551Z,41.81
2023-03-29T20:07:57.907Z,41.51
2023-03-29T20:10:27.768Z,41.35
2023-03-29T20:12:57.823Z,41.57
2023-03-29T20:15:28.928Z,41.35
2023-03-29T20:18:01.461Z,41.34
2023-03-29T20:24:15.573Z,42.25
2023-03-29T20:26:45.168Z,41.75
2023-03-29T20:29:15.803Z,41.99
2023-03-29T20:31:46.561Z,41.51
2023-03-29T20:34:15.284Z,41.85
2023-03-29T20:36:45.029Z,41.88
2023-03-29T20:39:14.437Z,41.74
2023-03-29T20:41:48.438Z,41.68
2023-03-29T20:44:19.080Z,41.97
2023-03-29T20:46:54.829Z,42.20
2023-03-29T20:49:27.136Z,42.46
2023-03-29T20:55:24.407Z,42.29
2023-03-29T20:57:55.270Z,42.01
2023-03-29T21:00:26.244Z,41.85
2023-03-29T21:02:57.659Z,41.77
2023-03-29T21:05:33.300Z,41.76
2023-03-29T21:08:03.413Z,41.28
2023-03-29T21:10:33.878Z,41.10
2023-03-29T21:17:10.866Z,41.75
2023-03-29T21:20:15.824Z,41.70
2023-03-29T21:22:45.554Z,41.41
2023-03-29T21:25:17.215Z,41.55
2023-03-29T21:27:47.102Z,40.98
2023-03-29T21:30:15.905Z,41.30
2023-03-29T21:32:50.187Z,41.32
2023-03-29T21:35:20.074Z,41.36
2023-03-29T21:37:49.571Z,41.22
2023-03-29T21:40:21.101Z,40.90
2023-03-29T21:43:07.644Z,41.64
2023-03-29T21:45:38.439Z,41.39
2023-03-29T21:48:08.033Z,41.37
2023-03-29T21:50:37.243Z,41.45
2023-03-29T21:53:05.568Z,41.48
2023-03-29T21:55:38.921Z,41.57
2023-03-29T21:58:08.488Z,42.95
2023-03-29T22:00:37.559Z,41.75
2023-03-29T22:03:06.758Z,40.91
2023-03-29T22:05:35.581Z,40.66
2023-03-29T22:08:10.794Z,40.59
2023-03-29T22:10:42.901Z,40.59
2023-03-29T22:13:11.462Z,40.45
2023-03-29T22:15:48.389Z,40.38
2023-03-29T22:18:17.394Z,40.82
2023-03-29T22:20:46.461Z,40.90
2023-03-29T22:23:15.912Z,40.76
2023-03-29T22:25:45.375Z,40.42
2023-03-29T22:28:14.622Z,40.29
2023-03-29T22:30:43.462Z,40.36
2023-03-29T22:33:13.095Z,40.40
2023-03-29T22:35:42.453Z,40.76
2023-03-29T22:38:11.175Z,40.39
2023-03-29T22:40:42.777Z,40.37
2023-03-29T22:43:11.601Z,40.36
2023-03-29T22:45:41.812Z,40.33
2023-03-29T22:48:11.441Z,40.39
2023-03-29T22:50:43.345Z,40.25
2023-03-29T22:53:12.319Z,40.24
2023-03-29T22:55:43.019Z,40.24
2023-03-29T22:58:11.340Z,40.20
2023-03-29T23:00:41.557Z,40.17
2023-03-29T23:03:10.999Z,40.10
2023-03-29T23:05:39.512Z,40.12
2023-03-29T23:08:13.991Z,40.17
2023-03-29T23:10:55.105Z,40.32
2023-03-29T23:13:37.252Z,40.09
2023-03-29T23:16:17.014Z,40.09
2023-03-29T23:18:47.927Z,40.05
2023-03-29T23:21:22.736Z,40.05
2023-03-29T23:23:54.315Z,40.00
2023-03-29T23:26:24.416Z,39.92
2023-03-29T23:32:45.186Z,40.95
2023-03-29T23:35:17.570Z,40.29
2023-03-29T23:37:46.708Z,40.55
2023-03-29T23:40:17.732Z,40.53
2023-03-29T23:42:49.475Z,41.13
2023-03-29T23:45:33.466Z,40.70
2023-03-29T23:48:03.513Z,40.07
2023-03-29T23:50:37.072Z,40.01
2023-03-29T23:53:31.380Z,39.94
2023-03-29T23:56:18.392Z,40.10
2023-03-29T23:58:47.440Z,39.94
